sensor_id;sensor_type;location;lat;lon;timestamp;pressure;altitude;pressure_sealevel;temperature
79492;BMP180;73788;53.048;18.472;2023-10-31T14:52:48;99353.20;;;
79492;BMP180;73788;53.048;18.472;2023-10-31T14:55:15;99351.40;;;
79492;BMP180;73788;53.048;18.472;2023-10-31T14:57:43;99359.60;;;
79492;BMP180;73788;53.048;18.472;2023-10-31T15:00:11;99361.20;;;
79492;BMP180;73788;53.048;18.472;2023-10-31T15:02:39;99361.60;;;
79492;BMP180;73788;53.048;18.472;2023-10-31T15:05:07;99362.20;;;
79492;BMP180;73788;53.048;18.472;2023-10-31T15:07:34;99363.20;;;
79492;BMP180;73788;53.048;18.472;2023-10-31T15:10:01;99364.20;;;
79492;BMP180;73788;53.048;18.472;2023-10-31T15:12:30;99357.20;;;
79492;BMP180;73788;53.048;18.472;2023-10-31T15:14:57;99360.80;;;
79492;BMP180;73788;53.048;18.472;2023-10-31T15:17:24;99363.80;;;
79492;BMP180;73788;53.048;18.472;2023-10-31T15:19:52;99366.60;;;
79492;BMP180;73788;53.048;18.472;2023-10-31T15:22:19;99353.00;;;
79492;BMP180;73788;53.048;18.472;2023-10-31T15:24:46;99354.80;;;
79492;BMP180;73788;53.048;18.472;2023-10-31T15:27:13;99356.20;;;
79492;BMP180;73788;53.048;18.472;2023-10-31T15:29:44;99358.80;;;
79492;BMP180;73788;53.048;18.472;2023-10-31T15:32:12;99363.60;;;
79492;BMP180;73788;53.048;18.472;2023-10-31T15:34:40;99366.40;;;
79492;BMP180;73788;53.048;18.472;2023-10-31T15:37:09;99363.00;;;
79492;BMP180;73788;53.048;18.472;2023-10-31T15:39:39;99364.40;;;
79492;BMP180;73788;53.048;18.472;2023-10-31T15:42:09;99363.80;;;
79492;BMP180;73788;53.048;18.472;2023-10-31T15:44:37;99368.40;;;
79492;BMP180;73788;53.048;18.472;2023-10-31T15:47:07;99372.20;;;
79492;BMP180;73788;53.048;18.472;2023-10-31T15:49:36;99384.40;;;
79492;BMP180;73788;53.048;18.472;2023-10-31T15:52:03;99390.20;;;
79492;BMP180;73788;53.048;18.472;2023-10-31T15:54:31;99395.20;;;
79492;BMP180;73788;53.048;18.472;2023-10-31T15:56:59;99407.00;;;
79492;BMP180;73788;53.048;18.472;2023-10-31T15:59:27;99402.20;;;
79492;BMP180;73788;53.048;18.472;2023-10-31T16:01:54;99405.60;;;
79492;BMP180;73788;53.048;18.472;2023-10-31T16:04:21;99399.40;;;
79492;BMP180;73788;53.048;18.472;2023-10-31T16:06:50;99397.40;;;
79492;BMP180;73788;53.048;18.472;2023-10-31T16:09:18;99402.80;;;
79492;BMP180;73788;53.048;18.472;2023-10-31T16:11:45;99404.20;;;
79492;BMP180;73788;53.048;18.472;2023-10-31T16:14:13;99401.40;;;
79492;BMP180;73788;53.048;18.472;2023-10-31T16:16:40;99405.40;;;
79492;BMP180;73788;53.048;18.472;2023-10-31T16:19:07;99406.20;;;
79492;BMP180;73788;53.048;18.472;2023-10-31T16:21:34;99409.20;;;
79492;BMP180;73788;53.048;18.472;2023-10-31T16:24:02;99403.80;;;
79492;BMP180;73788;53.048;18.472;2023-10-31T16:26:29;99400.80;;;
79492;BMP180;73788;53.048;18.472;2023-10-31T16:28:57;99402.40;;;
79492;BMP180;73788;53.048;18.472;2023-10-31T16:31:24;99398.20;;;
79492;BMP180;73788;53.048;18.472;2023-10-31T16:33:51;99397.40;;;
79492;BMP180;73788;53.048;18.472;2023-10-31T16:36:19;99406.20;;;
79492;BMP180;73788;53.048;18.472;2023-10-31T16:38:49;99402.40;;;
79492;BMP180;73788;53.048;18.472;2023-10-31T16:41:17;99410.20;;;
79492;BMP180;73788;53.048;18.472;2023-10-31T16:43:44;99417.80;;;
79492;BMP180;73788;53.048;18.472;2023-10-31T16:46:11;99418.40;;;
79492;BMP180;73788;53.048;18.472;2023-10-31T16:48:41;99420.80;;;
79492;BMP180;73788;53.048;18.472;2023-10-31T16:51:17;99421.20;;;
79492;BMP180;73788;53.048;18.472;2023-10-31T16:53:45;99427.00;;;
79492;BMP180;73788;53.048;18.472;2023-10-31T16:56:15;99429.60;;;
79492;BMP180;73788;53.048;18.472;2023-10-31T16:58:43;99432.00;;;
79492;BMP180;73788;53.048;18.472;2023-10-31T17:01:15;99432.00;;;
79492;BMP180;73788;53.048;18.472;2023-10-31T17:03:43;99428.80;;;
79492;BMP180;73788;53.048;18.472;2023-10-31T17:06:10;99435.60;;;
79492;BMP180;73788;53.048;18.472;2023-10-31T17:08:37;99437.80;;;
79492;BMP180;73788;53.048;18.472;2023-10-31T17:11:05;99438.60;;;
79492;BMP180;73788;53.048;18.472;2023-10-31T17:13:34;99439.00;;;
79492;BMP180;73788;53.048;18.472;2023-10-31T17:16:03;99443.80;;;
79492;BMP180;73788;53.048;18.472;2023-10-31T17:18:31;99439.80;;;
79492;BMP180;73788;53.048;18.472;2023-10-31T17:20:59;99445.60;;;
79492;BMP180;73788;53.048;18.472;2023-10-31T17:23:26;99444.60;;;
79492;BMP180;73788;53.048;18.472;2023-10-31T17:25:54;99446.20;;;
79492;BMP180;73788;53.048;18.472;2023-10-31T17:28:21;99439.40;;;
79492;BMP180;73788;53.048;18.472;2023-10-31T17:30:49;99430.00;;;
79492;BMP180;73788;53.048;18.472;2023-10-31T17:33:16;99430.20;;;
79492;BMP180;73788;53.048;18.472;2023-10-31T17:35:43;99432.20;;;
79492;BMP180;73788;53.048;18.472;2023-10-31T17:38:11;99441.60;;;
79492;BMP180;73788;53.048;18.472;2023-10-31T17:40:39;99440.80;;;
79492;BMP180;73788;53.048;18.472;2023-10-31T17:43:07;99437.60;;;
79492;BMP180;73788;53.048;18.472;2023-10-31T17:45:34;99432.00;;;
79492;BMP180;73788;53.048;18.472;2023-10-31T17:48:02;99438.80;;;
79492;BMP180;73788;53.048;18.472;2023-10-31T17:50:29;99452.40;;;
79492;BMP180;73788;53.048;18.472;2023-10-31T17:52:59;99455.20;;;
79492;BMP180;73788;53.048;18.472;2023-10-31T17:55:28;99458.80;;;
79492;BMP180;73788;53.048;18.472;2023-10-31T17:57:55;99461.80;;;
79492;BMP180;73788;53.048;18.472;2023-10-31T18:00:23;99461.00;;;
79492;BMP180;73788;53.048;18.472;2023-10-31T18:02:50;99460.20;;;
79492;BMP180;73788;53.048;18.472;2023-10-31T18:05:18;99463.20;;;
79492;BMP180;73788;53.048;18.472;2023-10-31T18:07:46;99467.40;;;
79492;BMP180;73788;53.048;18.472;2023-10-31T18:10:14;99481.60;;;
79492;BMP180;73788;53.048;18.472;2023-10-31T18:12:42;99484.80;;;
79492;BMP180;73788;53.048;18.472;2023-10-31T18:15:16;99477.20;;;
79492;BMP180;73788;53.048;18.472;2023-10-31T18:17:45;99472.40;;;
79492;BMP180;73788;53.048;18.472;2023-10-31T18:20:13;99479.40;;;
79492;BMP180;73788;53.048;18.472;2023-10-31T18:22:42;99478.00;;;
79492;BMP180;73788;53.048;18.472;2023-10-31T18:25:12;99482.00;;;
79492;BMP180;73788;53.048;18.472;2023-10-31T18:27:40;99484.60;;;
79492;BMP180;73788;53.048;18.472;2023-10-31T18:30:12;99494.20;;;
79492;BMP180;73788;53.048;18.472;2023-10-31T18:32:45;99495.00;;;
79492;BMP180;73788;53.048;18.472;2023-10-31T18:35:15;99505.20;;;
79492;BMP180;73788;53.048;18.472;2023-10-31T18:37:43;99507.80;;;
79492;BMP180;73788;53.048;18.472;2023-10-31T18:40:11;99506.60;;;
79492;BMP180;73788;53.048;18.472;2023-10-31T18:42:39;99504.60;;;
79492;BMP180;73788;53.048;18.472;2023-10-31T18:45:08;99500.00;;;
79492;BMP180;73788;53.048;18.472;2023-10-31T18:47:42;99502.00;;;
79492;BMP180;73788;53.048;18.472;2023-10-31T18:50:10;99504.00;;;
79492;BMP180;73788;53.048;18.472;2023-10-31T18:52:40;99507.00;;;
79492;BMP180;73788;53.048;18.472;2023-10-31T18:55:10;99510.40;;;
79492;BMP180;73788;53.048;18.472;2023-10-31T18:57:43;99509.60;;;
79492;BMP180;73788;53.048;18.472;2023-10-31T19:00:16;99506.40;;;
79492;BMP180;73788;53.048;18.472;2023-10-31T19:02:47;99514.40;;;
79492;BMP180;73788;53.048;18.472;2023-10-31T19:05:17;99517.00;;;
79492;BMP180;73788;53.048;18.472;2023-10-31T19:07:47;99517.60;;;
79492;BMP180;73788;53.048;18.472;2023-10-31T19:13:48;99525.00;;;
79492;BMP180;73788;53.048;18.472;2023-10-31T19:16:17;99529.00;;;
79492;BMP180;73788;53.048;18.472;2023-10-31T19:19:05;99528.40;;;
79492;BMP180;73788;53.048;18.472;2023-10-31T19:21:35;99536.80;;;
79492;BMP180;73788;53.048;18.472;2023-10-31T19:24:04;99546.20;;;
79492;BMP180;73788;53.048;18.472;2023-10-31T19:26:31;99549.60;;;
79492;BMP180;73788;53.048;18.472;2023-10-31T19:29:01;99550.00;;;
79492;BMP180;73788;53.048;18.472;2023-10-31T19:31:29;99546.20;;;
79492;BMP180;73788;53.048;18.472;2023-10-31T19:33:57;99544.20;;;
79492;BMP180;73788;53.048;18.472;2023-10-31T19:36:26;99550.80;;;
79492;BMP180;73788;53.048;18.472;2023-10-31T19:38:54;99548.40;;;
79492;BMP180;73788;53.048;18.472;2023-10-31T19:41:24;99546.40;;;
79492;BMP180;73788;53.048;18.472;2023-10-31T19:43:53;99545.60;;;
79492;BMP180;73788;53.048;18.472;2023-10-31T19:46:22;99544.40;;;
79492;BMP180;73788;53.048;18.472;2023-10-31T19:48:51;99530.40;;;
79492;BMP180;73788;53.048;18.472;2023-10-31T19:51:19;99539.80;;;
79492;BMP180;73788;53.048;18.472;2023-10-31T19:53:47;99535.80;;;
79492;BMP180;73788;53.048;18.472;2023-10-31T19:56:41;99536.80;;;
79492;BMP180;73788;53.048;18.472;2023-10-31T19:59:10;99547.40;;;
79492;BMP180;73788;53.048;18.472;2023-10-31T20:01:38;99552.20;;;
79492;BMP180;73788;53.048;18.472;2023-10-31T20:04:06;99559.20;;;
79492;BMP180;73788;53.048;18.472;2023-10-31T20:06:35;99567.40;;;
79492;BMP180;73788;53.048;18.472;2023-10-31T20:09:04;99577.40;;;
79492;BMP180;73788;53.048;18.472;2023-10-31T20:11:33;99581.80;;;
79492;BMP180;73788;53.048;18.472;2023-10-31T20:14:01;99593.40;;;
79492;BMP180;73788;53.048;18.472;2023-10-31T20:16:29;99602.40;;;
79492;BMP180;73788;53.048;18.472;2023-10-31T20:18:56;99604.00;;;
79492;BMP180;73788;53.048;18.472;2023-10-31T20:21:24;99619.20;;;
79492;BMP180;73788;53.048;18.472;2023-10-31T20:23:53;99633.40;;;
79492;BMP180;73788;53.048;18.472;2023-10-31T20:26:22;99646.20;;;
79492;BMP180;73788;53.048;18.472;2023-10-31T20:28:50;99670.40;;;
79492;BMP180;73788;53.048;18.472;2023-10-31T20:31:18;99679.80;;;
79492;BMP180;73788;53.048;18.472;2023-10-31T20:33:49;99686.40;;;
79492;BMP180;73788;53.048;18.472;2023-10-31T20:36:18;99689.20;;;
79492;BMP180;73788;53.048;18.472;2023-10-31T20:38:46;99695.80;;;
79492;BMP180;73788;53.048;18.472;2023-10-31T20:41:14;99701.40;;;
79492;BMP180;73788;53.048;18.472;2023-10-31T20:43:43;99699.80;;;
79492;BMP180;73788;53.048;18.472;2023-10-31T20:46:11;99699.60;;;
79492;BMP180;73788;53.048;18.472;2023-10-31T20:48:39;99706.00;;;
79492;BMP180;73788;53.048;18.472;2023-10-31T20:51:07;99704.40;;;
79492;BMP180;73788;53.048;18.472;2023-10-31T20:53:36;99701.60;;;
79492;BMP180;73788;53.048;18.472;2023-10-31T20:56:07;99707.00;;;
79492;BMP180;73788;53.048;18.472;2023-10-31T20:58:35;99712.20;;;
79492;BMP180;73788;53.048;18.472;2023-10-31T21:01:03;99709.00;;;
79492;BMP180;73788;53.048;18.472;2023-10-31T21:03:31;99712.20;;;
79492;BMP180;73788;53.048;18.472;2023-10-31T21:05:58;99710.40;;;
79492;BMP180;73788;53.048;18.472;2023-10-31T21:08:26;99715.40;;;
79492;BMP180;73788;53.048;18.472;2023-10-31T21:10:53;99722.20;;;
79492;BMP180;73788;53.048;18.472;2023-10-31T21:13:23;99729.00;;;
79492;BMP180;73788;53.048;18.472;2023-10-31T21:15:52;99733.20;;;
79492;BMP180;73788;53.048;18.472;2023-10-31T21:18:20;99729.00;;;
79492;BMP180;73788;53.048;18.472;2023-10-31T21:20:47;99738.40;;;
79492;BMP180;73788;53.048;18.472;2023-10-31T21:23:15;99737.40;;;
79492;BMP180;73788;53.048;18.472;2023-10-31T21:25:44;99737.20;;;
79492;BMP180;73788;53.048;18.472;2023-10-31T21:28:14;99743.80;;;
79492;BMP180;73788;53.048;18.472;2023-10-31T21:30:42;99748.40;;;
79492;BMP180;73788;53.048;18.472;2023-10-31T21:33:10;99748.40;;;
79492;BMP180;73788;53.048;18.472;2023-10-31T21:35:38;99749.00;;;
79492;BMP180;73788;53.048;18.472;2023-10-31T21:38:05;99744.80;;;
79492;BMP180;73788;53.048;18.472;2023-10-31T21:40:33;99743.20;;;
79492;BMP180;73788;53.048;18.472;2023-10-31T21:43:01;99747.80;;;
79492;BMP180;73788;53.048;18.472;2023-10-31T21:45:29;99743.40;;;
79492;BMP180;73788;53.048;18.472;2023-10-31T21:47:56;99749.20;;;
79492;BMP180;73788;53.048;18.472;2023-10-31T21:50:26;99750.00;;;
79492;BMP180;73788;53.048;18.472;2023-10-31T21:52:56;99758.40;;;
79492;BMP180;73788;53.048;18.472;2023-10-31T21:55:23;99763.80;;;
79492;BMP180;73788;53.048;18.472;2023-10-31T21:57:52;99771.00;;;
79492;BMP180;73788;53.048;18.472;2023-10-31T22:00:20;99783.40;;;
79492;BMP180;73788;53.048;18.472;2023-10-31T22:02:49;99789.80;;;
79492;BMP180;73788;53.048;18.472;2023-10-31T22:05:18;99788.00;;;
79492;BMP180;73788;53.048;18.472;2023-10-31T22:07:46;99798.20;;;
79492;BMP180;73788;53.048;18.472;2023-10-31T22:10:13;99802.40;;;
79492;BMP180;73788;53.048;18.472;2023-10-31T22:12:41;99801.80;;;
79492;BMP180;73788;53.048;18.472;2023-10-31T22:15:08;99810.60;;;
79492;BMP180;73788;53.048;18.472;2023-10-31T22:17:37;99815.20;;;
79492;BMP180;73788;53.048;18.472;2023-10-31T22:20:06;99811.80;;;
79492;BMP180;73788;53.048;18.472;2023-10-31T22:22:34;99811.80;;;
79492;BMP180;73788;53.048;18.472;2023-10-31T22:25:01;99814.80;;;
79492;BMP180;73788;53.048;18.472;2023-10-31T22:27:30;99811.20;;;
79492;BMP180;73788;53.048;18.472;2023-10-31T22:29:58;99811.40;;;
79492;BMP180;73788;53.048;18.472;2023-10-31T22:32:26;99809.00;;;
79492;BMP180;73788;53.048;18.472;2023-10-31T22:34:53;99809.00;;;
79492;BMP180;73788;53.048;18.472;2023-10-31T22:37:21;99805.40;;;
79492;BMP180;73788;53.048;18.472;2023-10-31T22:39:48;99803.40;;;
79492;BMP180;73788;53.048;18.472;2023-10-31T22:42:15;99799.40;;;
79492;BMP180;73788;53.048;18.472;2023-10-31T22:44:42;99804.80;;;
79492;BMP180;73788;53.048;18.472;2023-10-31T22:47:10;99808.80;;;
79492;BMP180;73788;53.048;18.472;2023-10-31T22:49:38;99815.00;;;
79492;BMP180;73788;53.048;18.472;2023-10-31T22:52:05;99821.40;;;
79492;BMP180;73788;53.048;18.472;2023-10-31T22:54:32;99816.60;;;
79492;BMP180;73788;53.048;18.472;2023-10-31T22:57:00;99819.40;;;
79492;BMP180;73788;53.048;18.472;2023-10-31T22:59:27;99820.60;;;
79492;BMP180;73788;53.048;18.472;2023-10-31T23:01:54;99815.80;;;
79492;BMP180;73788;53.048;18.472;2023-10-31T23:04:23;99819.60;;;
79492;BMP180;73788;53.048;18.472;2023-10-31T23:06:51;99819.00;;;
79492;BMP180;73788;53.048;18.472;2023-10-31T23:09:20;99823.60;;;
79492;BMP180;73788;53.048;18.472;2023-10-31T23:11:47;99826.20;;;
79492;BMP180;73788;53.048;18.472;2023-10-31T23:14:16;99829.00;;;
79492;BMP180;73788;53.048;18.472;2023-10-31T23:16:43;99826.20;;;
79492;BMP180;73788;53.048;18.472;2023-10-31T23:19:10;99827.60;;;
79492;BMP180;73788;53.048;18.472;2023-10-31T23:21:38;99824.40;;;
79492;BMP180;73788;53.048;18.472;2023-10-31T23:24:06;99831.80;;;
79492;BMP180;73788;53.048;18.472;2023-10-31T23:26:33;99837.40;;;
79492;BMP180;73788;53.048;18.472;2023-10-31T23:29:00;99837.40;;;
79492;BMP180;73788;53.048;18.472;2023-10-31T23:31:28;99843.80;;;
79492;BMP180;73788;53.048;18.472;2023-10-31T23:33:56;99851.00;;;
79492;BMP180;73788;53.048;18.472;2023-10-31T23:36:23;99854.80;;;
79492;BMP180;73788;53.048;18.472;2023-10-31T23:38:50;99855.20;;;
79492;BMP180;73788;53.048;18.472;2023-10-31T23:41:17;99861.60;;;
79492;BMP180;73788;53.048;18.472;2023-10-31T23:43:45;99862.80;;;
79492;BMP180;73788;53.048;18.472;2023-10-31T23:46:12;99866.20;;;
79492;BMP180;73788;53.048;18.472;2023-10-31T23:48:40;99869.60;;;
79492;BMP180;73788;53.048;18.472;2023-10-31T23:51:07;99869.20;;;
79492;BMP180;73788;53.048;18.472;2023-10-31T23:53:34;99876.80;;;
79492;BMP180;73788;53.048;18.472;2023-10-31T23:56:02;99878.40;;;
79492;BMP180;73788;53.048;18.472;2023-10-31T23:58:30;99885.20;;;
